createdAt,value
2018-11-22T00:04:15.000Z,36.3
2018-11-22T00:14:13.000Z,36.4
2018-11-22T00:34:13.000Z,36.5
2018-11-22T00:44:13.000Z,37.1
2018-11-22T00:54:13.000Z,36.9
2018-11-22T01:04:13.000Z,36.4
2018-11-22T01:14:13.000Z,37
2018-11-22T01:34:13.000Z,36.8
2018-11-22T01:44:13.000Z,37.1
2018-11-22T01:54:13.000Z,37
2018-11-22T02:04:13.000Z,38.3
2018-11-22T02:14:13.000Z,37.3
2018-11-22T02:24:13.000Z,36.6
2018-11-22T02:34:13.000Z,36.5
2018-11-22T02:44:13.000Z,37
2018-11-22T02:54:13.000Z,36.9
2018-11-22T03:04:13.000Z,36.8
2018-11-22T03:14:13.000Z,36.9
2018-11-22T03:24:14.000Z,37.1
2018-11-22T03:34:14.000Z,36.9
2018-11-22T03:44:14.000Z,36.9
2018-11-22T03:54:14.000Z,37.3
2018-11-22T04:04:14.000Z,37.1
2018-11-22T04:14:17.000Z,37.2
2018-11-22T04:24:14.000Z,37.3
2018-11-22T04:34:14.000Z,37.2
2018-11-22T04:44:14.000Z,37
2018-11-22T04:54:14.000Z,37
2018-11-22T05:04:14.000Z,37.4
2018-11-22T05:14:14.000Z,37.2
2018-11-22T05:24:14.000Z,37.1
2018-11-22T05:34:14.000Z,37.1
2018-11-22T05:44:14.000Z,37.3
2018-11-22T05:54:14.000Z,37.5
2018-11-22T06:04:14.000Z,37.3
2018-11-22T06:14:14.000Z,37.5
2018-11-22T06:24:14.000Z,37.3
2018-11-22T06:34:14.000Z,37.4
2018-11-22T06:44:14.000Z,37.3
2018-11-22T06:54:14.000Z,37.4
2018-11-22T07:04:14.000Z,37.5
2018-11-22T07:14:14.000Z,37.6
2018-11-22T07:24:14.000Z,38
2018-11-22T07:34:14.000Z,39
2018-11-22T07:44:14.000Z,38.9
2018-11-22T07:54:14.000Z,41.3
2018-11-22T08:14:14.000Z,45.2
2018-11-22T08:24:14.000Z,45.4
2018-11-22T08:34:14.000Z,45.8
2018-11-22T08:44:14.000Z,45.3
2018-11-22T08:54:14.000Z,45.6
2018-11-22T09:04:14.000Z,45.4
2018-11-22T18:24:16.000Z,45.1
2018-11-22T18:34:16.000Z,61.3
2018-11-22T18:44:16.000Z,61.8
2018-11-22T18:54:16.000Z,62.1
2018-11-22T19:04:16.000Z,62.1
2018-11-22T19:14:16.000Z,62.3
2018-11-22T19:24:16.000Z,62.5
2018-11-22T19:34:16.000Z,62.7
2018-11-22T19:44:18.000Z,62.8
2018-11-22T19:54:16.000Z,62.9
2018-11-22T20:04:16.000Z,63.2
2018-11-22T20:14:16.000Z,63.2
2018-11-22T20:24:16.000Z,63.3
2018-11-22T20:34:16.000Z,63.4
2018-11-22T20:44:16.000Z,63.4
2018-11-22T20:54:16.000Z,63.5
2018-11-22T21:04:16.000Z,63.5
2018-11-22T21:14:16.000Z,63.7
2018-11-22T21:24:16.000Z,63.6
2018-11-22T21:34:16.000Z,63.8
2018-11-22T21:44:16.000Z,63.8
2018-11-22T21:54:16.000Z,63.8
2018-11-22T22:04:16.000Z,54.7
2018-11-22T22:14:16.000Z,41.9
2018-11-22T22:24:16.000Z,39.6
2018-11-22T22:34:16.000Z,39
2018-11-22T22:44:16.000Z,39.1
2018-11-22T22:54:16.000Z,38.7
2018-11-22T23:04:16.000Z,38.8
2018-11-22T23:14:16.000Z,38.7
2018-11-22T23:24:16.000Z,38.7
2018-11-22T23:34:16.000Z,38.8
2018-11-22T23:44:16.000Z,38.9
